sensor_id;sensor_type;location;lat;lon;timestamp;P1;durP1;ratioP1;P2;durP2;ratioP2
16228;SDS011;8222;51.462;12.630;2022-08-01T00:00:29;4.13;;;3.83;;
16228;SDS011;8222;51.462;12.630;2022-08-01T00:02:55;4.18;;;3.95;;
16228;SDS011;8222;51.462;12.630;2022-08-01T00:05:21;4.00;;;3.80;;
16228;SDS011;8222;51.462;12.630;2022-08-01T00:07:46;4.10;;;3.80;;
16228;SDS011;8222;51.462;12.630;2022-08-01T00:10:13;4.22;;;3.92;;
16228;SDS011;8222;51.462;12.630;2022-08-01T00:12:40;4.78;;;4.38;;
16228;SDS011;8222;51.462;12.630;2022-08-01T00:15:07;4.22;;;3.85;;
16228;SDS011;8222;51.462;12.630;2022-08-01T00:17:35;4.95;;;4.55;;
16228;SDS011;8222;51.462;12.630;2022-08-01T00:20:02;4.55;;;4.25;;
16228;SDS011;8222;51.462;12.630;2022-08-01T00:22:33;4.43;;;4.05;;
16228;SDS011;8222;51.462;12.630;2022-08-01T00:24:59;4.72;;;4.43;;
16228;SDS011;8222;51.462;12.630;2022-08-01T00:27:25;4.20;;;4.00;;
16228;SDS011;8222;51.462;12.630;2022-08-01T00:29:51;4.43;;;3.88;;
16228;SDS011;8222;51.462;12.630;2022-08-01T00:32:17;4.45;;;4.10;;
16228;SDS011;8222;51.462;12.630;2022-08-01T00:34:43;4.20;;;4.00;;
16228;SDS011;8222;51.462;12.630;2022-08-01T00:37:09;4.53;;;4.13;;
16228;SDS011;8222;51.462;12.630;2022-08-01T00:39:35;4.50;;;4.20;;
16228;SDS011;8222;51.462;12.630;2022-08-01T00:42:10;4.30;;;4.00;;
16228;SDS011;8222;51.462;12.630;2022-08-01T00:44:37;4.13;;;3.93;;
16228;SDS011;8222;51.462;12.630;2022-08-01T00:47:04;4.10;;;3.80;;
16228;SDS011;8222;51.462;12.630;2022-08-01T00:49:30;4.22;;;3.90;;
16228;SDS011;8222;51.462;12.630;2022-08-01T00:51:55;4.40;;;4.10;;
16228;SDS011;8222;51.462;12.630;2022-08-01T00:54:23;4.32;;;4.03;;
16228;SDS011;8222;51.462;12.630;2022-08-01T00:56:50;3.97;;;3.73;;
16228;SDS011;8222;51.462;12.630;2022-08-01T00:59:17;4.10;;;3.80;;
16228;SDS011;8222;51.462;12.630;2022-08-01T01:01:43;4.50;;;4.20;;
16228;SDS011;8222;51.462;12.630;2022-08-01T01:04:09;4.53;;;4.22;;
16228;SDS011;8222;51.462;12.630;2022-08-01T01:06:40;4.53;;;4.23;;
16228;SDS011;8222;51.462;12.630;2022-08-01T01:09:19;4.95;;;4.55;;
16228;SDS011;8222;51.462;12.630;2022-08-01T01:11:55;5.23;;;4.90;;
16228;SDS011;8222;51.462;12.630;2022-08-01T01:14:27;4.80;;;4.00;;
16228;SDS011;8222;51.462;12.630;2022-08-01T01:17:00;4.88;;;4.57;;
16228;SDS011;8222;51.462;12.630;2022-08-01T01:19:29;5.18;;;4.88;;
16228;SDS011;8222;51.462;12.630;2022-08-01T01:28:21;5.18;;;4.78;;
16228;SDS011;8222;51.462;12.630;2022-08-01T01:30:58;5.28;;;4.90;;
16228;SDS011;8222;51.462;12.630;2022-08-01T01:33:26;4.75;;;4.35;;
16228;SDS011;8222;51.462;12.630;2022-08-01T01:35:57;4.90;;;4.50;;
16228;SDS011;8222;51.462;12.630;2022-08-01T01:38:29;5.17;;;4.80;;
16228;SDS011;8222;51.462;12.630;2022-08-01T01:40:59;4.70;;;4.30;;
16228;SDS011;8222;51.462;12.630;2022-08-01T01:43:27;5.57;;;5.18;;
16228;SDS011;8222;51.462;12.630;2022-08-01T01:45:54;5.65;;;5.15;;
16228;SDS011;8222;51.462;12.630;2022-08-01T01:48:21;6.13;;;4.95;;
16228;SDS011;8222;51.462;12.630;2022-08-01T01:50:48;6.10;;;4.50;;
16228;SDS011;8222;51.462;12.630;2022-08-01T01:53:17;4.93;;;4.50;;
16228;SDS011;8222;51.462;12.630;2022-08-01T01:55:45;4.43;;;4.13;;
16228;SDS011;8222;51.462;12.630;2022-08-01T01:58:15;5.90;;;5.50;;
16228;SDS011;8222;51.462;12.630;2022-08-01T02:00:42;5.38;;;4.97;;
16228;SDS011;8222;51.462;12.630;2022-08-01T02:03:11;5.75;;;5.35;;
16228;SDS011;8222;51.462;12.630;2022-08-01T02:05:38;5.40;;;4.90;;
16228;SDS011;8222;51.462;12.630;2022-08-01T02:08:06;5.53;;;5.13;;
16228;SDS011;8222;51.462;12.630;2022-08-01T02:10:35;5.72;;;5.22;;
16228;SDS011;8222;51.462;12.630;2022-08-01T02:13:03;4.80;;;4.40;;
16228;SDS011;8222;51.462;12.630;2022-08-01T02:15:30;5.55;;;5.15;;
16228;SDS011;8222;51.462;12.630;2022-08-01T02:17:58;5.70;;;5.30;;
16228;SDS011;8222;51.462;12.630;2022-08-01T02:20:26;6.00;;;5.47;;
16228;SDS011;8222;51.462;12.630;2022-08-01T02:23:00;5.72;;;5.07;;
16228;SDS011;8222;51.462;12.630;2022-08-01T02:25:36;5.20;;;4.82;;
16228;SDS011;8222;51.462;12.630;2022-08-01T02:28:07;5.10;;;4.80;;
16228;SDS011;8222;51.462;12.630;2022-08-01T02:30:37;5.15;;;4.85;;
16228;SDS011;8222;51.462;12.630;2022-08-01T02:33:05;5.50;;;5.10;;
16228;SDS011;8222;51.462;12.630;2022-08-01T02:35:36;5.13;;;4.72;;
16228;SDS011;8222;51.462;12.630;2022-08-01T02:38:05;5.22;;;4.82;;
16228;SDS011;8222;51.462;12.630;2022-08-01T02:40:34;5.22;;;4.75;;
16228;SDS011;8222;51.462;12.630;2022-08-01T02:43:03;5.00;;;4.60;;
16228;SDS011;8222;51.462;12.630;2022-08-01T02:45:31;4.93;;;4.50;;
16228;SDS011;8222;51.462;12.630;2022-08-01T02:48:05;5.22;;;4.90;;
16228;SDS011;8222;51.462;12.630;2022-08-01T02:50:35;4.88;;;4.57;;
16228;SDS011;8222;51.462;12.630;2022-08-01T02:53:01;4.57;;;4.20;;
16228;SDS011;8222;51.462;12.630;2022-08-01T02:55:28;4.68;;;4.38;;
16228;SDS011;8222;51.462;12.630;2022-08-01T02:57:57;4.72;;;4.40;;
16228;SDS011;8222;51.462;12.630;2022-08-01T03:00:24;4.50;;;4.10;;
16228;SDS011;8222;51.462;12.630;2022-08-01T03:02:50;4.80;;;4.50;;
16228;SDS011;8222;51.462;12.630;2022-08-01T03:05:20;4.78;;;4.43;;
16228;SDS011;8222;51.462;12.630;2022-08-01T03:07:46;4.63;;;4.22;;
16228;SDS011;8222;51.462;12.630;2022-08-01T03:10:13;4.60;;;4.30;;
16228;SDS011;8222;51.462;12.630;2022-08-01T03:12:41;5.30;;;4.20;;
16228;SDS011;8222;51.462;12.630;2022-08-01T03:15:09;4.35;;;4.05;;
16228;SDS011;8222;51.462;12.630;2022-08-01T03:17:37;4.97;;;4.30;;
16228;SDS011;8222;51.462;12.630;2022-08-01T03:20:06;4.10;;;3.90;;
16228;SDS011;8222;51.462;12.630;2022-08-01T03:22:35;4.60;;;4.30;;
16228;SDS011;8222;51.462;12.630;2022-08-01T03:25:03;4.43;;;4.13;;
16228;SDS011;8222;51.462;12.630;2022-08-01T03:27:31;4.05;;;3.75;;
16228;SDS011;8222;51.462;12.630;2022-08-01T03:29:59;4.47;;;4.18;;
16228;SDS011;8222;51.462;12.630;2022-08-01T03:32:28;4.78;;;4.10;;
16228;SDS011;8222;51.462;12.630;2022-08-01T03:34:55;4.30;;;4.00;;
16228;SDS011;8222;51.462;12.630;2022-08-01T03:37:26;4.47;;;4.10;;
16228;SDS011;8222;51.462;12.630;2022-08-01T03:42:31;3.97;;;3.78;;
16228;SDS011;8222;51.462;12.630;2022-08-01T03:44:59;4.32;;;4.03;;
16228;SDS011;8222;51.462;12.630;2022-08-01T03:47:34;4.03;;;3.80;;
16228;SDS011;8222;51.462;12.630;2022-08-01T03:50:01;4.00;;;3.80;;
16228;SDS011;8222;51.462;12.630;2022-08-01T03:52:32;4.22;;;3.92;;
16228;SDS011;8222;51.462;12.630;2022-08-01T03:55:01;4.40;;;4.10;;
16228;SDS011;8222;51.462;12.630;2022-08-01T03:57:32;4.60;;;4.20;;
16228;SDS011;8222;51.462;12.630;2022-08-01T03:59:58;3.83;;;3.63;;
16228;SDS011;8222;51.462;12.630;2022-08-01T04:02:25;4.37;;;3.97;;
16228;SDS011;8222;51.462;12.630;2022-08-01T04:04:52;4.25;;;3.95;;
16228;SDS011;8222;51.462;12.630;2022-08-01T04:07:22;4.30;;;4.00;;
16228;SDS011;8222;51.462;12.630;2022-08-01T04:09:48;3.85;;;3.65;;
16228;SDS011;8222;51.462;12.630;2022-08-01T04:12:14;3.90;;;3.63;;
16228;SDS011;8222;51.462;12.630;2022-08-01T04:14:39;4.00;;;3.70;;
16228;SDS011;8222;51.462;12.630;2022-08-01T04:17:05;4.28;;;3.88;;
16228;SDS011;8222;51.462;12.630;2022-08-01T04:19:30;4.27;;;3.97;;
16228;SDS011;8222;51.462;12.630;2022-08-01T04:21:56;4.15;;;3.85;;
16228;SDS011;8222;51.462;12.630;2022-08-01T04:24:22;4.18;;;3.72;;
16228;SDS011;8222;51.462;12.630;2022-08-01T04:26:52;3.95;;;3.75;;
16228;SDS011;8222;51.462;12.630;2022-08-01T04:29:19;4.15;;;3.85;;
16228;SDS011;8222;51.462;12.630;2022-08-01T04:31:47;4.03;;;3.78;;
16228;SDS011;8222;51.462;12.630;2022-08-01T04:34:15;4.07;;;3.67;;
16228;SDS011;8222;51.462;12.630;2022-08-01T04:36:46;4.20;;;3.90;;
16228;SDS011;8222;51.462;12.630;2022-08-01T04:39:14;3.95;;;3.72;;
16228;SDS011;8222;51.462;12.630;2022-08-01T04:41:43;3.92;;;3.63;;
16228;SDS011;8222;51.462;12.630;2022-08-01T04:44:13;4.03;;;3.80;;
16228;SDS011;8222;51.462;12.630;2022-08-01T04:46:39;3.47;;;3.17;;
16228;SDS011;8222;51.462;12.630;2022-08-01T04:49:09;3.72;;;3.53;;
16228;SDS011;8222;51.462;12.630;2022-08-01T04:51:36;3.65;;;3.35;;
16228;SDS011;8222;51.462;12.630;2022-08-01T04:54:16;3.65;;;3.40;;
16228;SDS011;8222;51.462;12.630;2022-08-01T04:56:41;4.00;;;3.70;;
16228;SDS011;8222;51.462;12.630;2022-08-01T04:59:07;4.00;;;3.70;;
16228;SDS011;8222;51.462;12.630;2022-08-01T05:01:51;3.90;;;3.60;;
16228;SDS011;8222;51.462;12.630;2022-08-01T05:04:17;4.07;;;3.80;;
16228;SDS011;8222;51.462;12.630;2022-08-01T05:06:43;3.35;;;3.15;;
16228;SDS011;8222;51.462;12.630;2022-08-01T05:09:09;3.88;;;3.47;;
16228;SDS011;8222;51.462;12.630;2022-08-01T05:11:34;3.10;;;2.90;;
16228;SDS011;8222;51.462;12.630;2022-08-01T05:14:00;3.40;;;3.10;;
16228;SDS011;8222;51.462;12.630;2022-08-01T05:16:26;4.18;;;3.35;;
16228;SDS011;8222;51.462;12.630;2022-08-01T05:18:51;3.10;;;2.90;;
16228;SDS011;8222;51.462;12.630;2022-08-01T05:21:17;3.10;;;2.90;;
16228;SDS011;8222;51.462;12.630;2022-08-01T05:23:43;3.00;;;2.80;;
16228;SDS011;8222;51.462;12.630;2022-08-01T05:26:09;3.00;;;2.70;;
16228;SDS011;8222;51.462;12.630;2022-08-01T05:28:35;2.80;;;2.60;;
16228;SDS011;8222;51.462;12.630;2022-08-01T05:31:02;2.90;;;2.70;;
16228;SDS011;8222;51.462;12.630;2022-08-01T05:33:28;2.60;;;2.40;;
16228;SDS011;8222;51.462;12.630;2022-08-01T05:35:53;3.10;;;2.90;;
16228;SDS011;8222;51.462;12.630;2022-08-01T05:38:19;2.90;;;2.70;;
16228;SDS011;8222;51.462;12.630;2022-08-01T05:40:45;3.00;;;2.80;;
16228;SDS011;8222;51.462;12.630;2022-08-01T05:43:10;2.80;;;2.60;;
16228;SDS011;8222;51.462;12.630;2022-08-01T05:45:36;2.50;;;2.30;;
16228;SDS011;8222;51.462;12.630;2022-08-01T05:48:02;3.90;;;3.60;;
16228;SDS011;8222;51.462;12.630;2022-08-01T05:50:27;2.65;;;2.45;;
16228;SDS011;8222;51.462;12.630;2022-08-01T05:52:53;2.67;;;2.47;;
16228;SDS011;8222;51.462;12.630;2022-08-01T05:55:19;2.72;;;2.53;;
16228;SDS011;8222;51.462;12.630;2022-08-01T05:57:44;2.80;;;2.60;;
16228;SDS011;8222;51.462;12.630;2022-08-01T06:00:10;2.63;;;2.53;;
16228;SDS011;8222;51.462;12.630;2022-08-01T06:02:41;2.28;;;2.17;;
16228;SDS011;8222;51.462;12.630;2022-08-01T06:05:08;2.80;;;2.20;;
16228;SDS011;8222;51.462;12.630;2022-08-01T06:07:34;2.50;;;2.40;;
16228;SDS011;8222;51.462;12.630;2022-08-01T06:10:00;3.20;;;2.90;;
16228;SDS011;8222;51.462;12.630;2022-08-01T06:12:26;2.65;;;2.45;;
16228;SDS011;8222;51.462;12.630;2022-08-01T06:14:51;2.23;;;2.03;;
16228;SDS011;8222;51.462;12.630;2022-08-01T06:17:17;2.20;;;2.10;;
16228;SDS011;8222;51.462;12.630;2022-08-01T06:19:43;2.47;;;2.37;;
16228;SDS011;8222;51.462;12.630;2022-08-01T06:22:08;2.22;;;2.13;;
16228;SDS011;8222;51.462;12.630;2022-08-01T06:24:34;2.70;;;2.50;;
16228;SDS011;8222;51.462;12.630;2022-08-01T06:26:59;2.30;;;2.20;;
16228;SDS011;8222;51.462;12.630;2022-08-01T06:29:25;2.40;;;2.20;;
16228;SDS011;8222;51.462;12.630;2022-08-01T06:31:51;2.28;;;2.10;;
16228;SDS011;8222;51.462;12.630;2022-08-01T06:34:16;2.80;;;2.60;;
16228;SDS011;8222;51.462;12.630;2022-08-01T06:36:42;2.70;;;2.50;;
16228;SDS011;8222;51.462;12.630;2022-08-01T06:39:08;2.35;;;2.15;;
16228;SDS011;8222;51.462;12.630;2022-08-01T06:41:33;3.17;;;2.17;;
16228;SDS011;8222;51.462;12.630;2022-08-01T06:43:59;2.45;;;2.20;;
16228;SDS011;8222;51.462;12.630;2022-08-01T06:46:27;2.38;;;2.17;;
16228;SDS011;8222;51.462;12.630;2022-08-01T06:48:52;2.20;;;2.10;;
16228;SDS011;8222;51.462;12.630;2022-08-01T06:51:18;2.50;;;2.30;;
16228;SDS011;8222;51.462;12.630;2022-08-01T06:53:45;2.03;;;1.90;;
16228;SDS011;8222;51.462;12.630;2022-08-01T06:56:11;2.05;;;1.90;;
16228;SDS011;8222;51.462;12.630;2022-08-01T06:58:37;1.98;;;1.77;;
16228;SDS011;8222;51.462;12.630;2022-08-01T07:01:03;2.13;;;2.03;;
16228;SDS011;8222;51.462;12.630;2022-08-01T07:03:31;2.33;;;2.20;;
16228;SDS011;8222;51.462;12.630;2022-08-01T07:05:57;2.50;;;2.30;;
16228;SDS011;8222;51.462;12.630;2022-08-01T07:08:22;2.20;;;2.10;;
16228;SDS011;8222;51.462;12.630;2022-08-01T07:10:48;2.30;;;2.10;;
16228;SDS011;8222;51.462;12.630;2022-08-01T07:13:14;2.70;;;2.50;;
16228;SDS011;8222;51.462;12.630;2022-08-01T07:15:45;2.28;;;2.10;;
16228;SDS011;8222;51.462;12.630;2022-08-01T07:18:11;2.40;;;2.20;;
16228;SDS011;8222;51.462;12.630;2022-08-01T07:20:37;2.70;;;2.50;;
16228;SDS011;8222;51.462;12.630;2022-08-01T07:23:03;2.58;;;2.38;;
16228;SDS011;8222;51.462;12.630;2022-08-01T07:25:28;2.60;;;2.20;;
16228;SDS011;8222;51.462;12.630;2022-08-01T07:27:54;1.97;;;1.87;;
16228;SDS011;8222;51.462;12.630;2022-08-01T07:30:20;2.20;;;2.00;;
16228;SDS011;8222;51.462;12.630;2022-08-01T07:32:46;2.10;;;2.00;;
16228;SDS011;8222;51.462;12.630;2022-08-01T07:35:12;1.80;;;1.70;;
16228;SDS011;8222;51.462;12.630;2022-08-01T07:37:37;1.20;;;1.10;;
16228;SDS011;8222;51.462;12.630;2022-08-01T07:40:03;1.27;;;1.10;;
16228;SDS011;8222;51.462;12.630;2022-08-01T07:42:30;0.95;;;0.93;;
16228;SDS011;8222;51.462;12.630;2022-08-01T07:44:56;1.30;;;1.13;;
16228;SDS011;8222;51.462;12.630;2022-08-01T07:47:25;0.70;;;0.70;;
16228;SDS011;8222;51.462;12.630;2022-08-01T07:49:51;1.08;;;1.00;;
16228;SDS011;8222;51.462;12.630;2022-08-01T07:52:23;0.82;;;0.82;;
16228;SDS011;8222;51.462;12.630;2022-08-01T07:54:49;0.90;;;0.80;;
16228;SDS011;8222;51.462;12.630;2022-08-01T07:57:15;0.90;;;0.70;;
16228;SDS011;8222;51.462;12.630;2022-08-01T07:59:40;0.70;;;0.70;;
16228;SDS011;8222;51.462;12.630;2022-08-01T08:02:06;1.20;;;1.00;;
16228;SDS011;8222;51.462;12.630;2022-08-01T08:04:32;1.10;;;1.00;;
16228;SDS011;8222;51.462;12.630;2022-08-01T08:06:57;0.90;;;0.90;;
16228;SDS011;8222;51.462;12.630;2022-08-01T08:09:23;0.90;;;0.90;;
16228;SDS011;8222;51.462;12.630;2022-08-01T08:11:48;1.00;;;1.00;;
16228;SDS011;8222;51.462;12.630;2022-08-01T08:14:15;0.80;;;0.80;;
16228;SDS011;8222;51.462;12.630;2022-08-01T08:16:41;1.38;;;1.00;;
16228;SDS011;8222;51.462;12.630;2022-08-01T08:19:08;1.02;;;1.00;;
16228;SDS011;8222;51.462;12.630;2022-08-01T08:21:33;0.93;;;0.93;;
16228;SDS011;8222;51.462;12.630;2022-08-01T08:23:59;1.48;;;1.13;;
16228;SDS011;8222;51.462;12.630;2022-08-01T08:26:43;1.08;;;1.08;;
16228;SDS011;8222;51.462;12.630;2022-08-01T08:29:09;1.57;;;1.20;;
16228;SDS011;8222;51.462;12.630;2022-08-01T08:31:35;1.30;;;1.17;;
16228;SDS011;8222;51.462;12.630;2022-08-01T08:34:00;1.70;;;1.60;;
16228;SDS011;8222;51.462;12.630;2022-08-01T08:36:26;1.23;;;1.13;;
16228;SDS011;8222;51.462;12.630;2022-08-01T08:38:52;1.30;;;1.20;;
16228;SDS011;8222;51.462;12.630;2022-08-01T08:41:17;1.50;;;1.40;;
16228;SDS011;8222;51.462;12.630;2022-08-01T08:43:43;1.37;;;1.27;;
16228;SDS011;8222;51.462;12.630;2022-08-01T08:46:09;1.40;;;1.30;;
16228;SDS011;8222;51.462;12.630;2022-08-01T08:48:37;1.70;;;1.42;;
16228;SDS011;8222;51.462;12.630;2022-08-01T08:51:05;1.70;;;1.60;;
16228;SDS011;8222;51.462;12.630;2022-08-01T08:53:33;1.73;;;1.40;;
16228;SDS011;8222;51.462;12.630;2022-08-01T08:56:00;1.48;;;1.40;;
16228;SDS011;8222;51.462;12.630;2022-08-01T08:58:28;1.70;;;1.60;;
16228;SDS011;8222;51.462;12.630;2022-08-01T09:00:59;1.50;;;1.40;;
16228;SDS011;8222;51.462;12.630;2022-08-01T09:03:25;1.42;;;1.42;;
16228;SDS011;8222;51.462;12.630;2022-08-01T09:05:51;2.60;;;1.50;;
16228;SDS011;8222;51.462;12.630;2022-08-01T09:08:16;1.50;;;1.40;;
16228;SDS011;8222;51.462;12.630;2022-08-01T09:10:42;1.17;;;1.15;;
16228;SDS011;8222;51.462;12.630;2022-08-01T09:13:12;1.02;;;0.98;;
16228;SDS011;8222;51.462;12.630;2022-08-01T09:15:39;1.05;;;1.05;;
16228;SDS011;8222;51.462;12.630;2022-08-01T09:21:08;0.93;;;0.93;;
16228;SDS011;8222;51.462;12.630;2022-08-01T09:23:37;0.70;;;0.70;;
16228;SDS011;8222;51.462;12.630;2022-08-01T09:26:08;1.92;;;0.75;;
16228;SDS011;8222;51.462;12.630;2022-08-01T09:28:34;0.60;;;0.60;;
16228;SDS011;8222;51.462;12.630;2022-08-01T09:31:07;0.73;;;0.73;;
16228;SDS011;8222;51.462;12.630;2022-08-01T09:33:51;0.70;;;0.70;;
16228;SDS011;8222;51.462;12.630;2022-08-01T09:36:17;1.05;;;0.80;;
16228;SDS011;8222;51.462;12.630;2022-08-01T09:38:46;0.70;;;0.70;;
16228;SDS011;8222;51.462;12.630;2022-08-01T09:41:12;0.90;;;0.90;;
16228;SDS011;8222;51.462;12.630;2022-08-01T09:43:38;1.20;;;1.10;;
16228;SDS011;8222;51.462;12.630;2022-08-01T09:46:05;0.90;;;0.90;;
16228;SDS011;8222;51.462;12.630;2022-08-01T09:48:56;0.90;;;0.90;;
16228;SDS011;8222;51.462;12.630;2022-08-01T09:51:36;1.10;;;1.10;;
16228;SDS011;8222;51.462;12.630;2022-08-01T09:54:03;1.30;;;1.10;;
16228;SDS011;8222;51.462;12.630;2022-08-01T09:56:36;1.33;;;1.27;;
16228;SDS011;8222;51.462;12.630;2022-08-01T09:59:10;1.08;;;1.08;;
16228;SDS011;8222;51.462;12.630;2022-08-01T10:01:44;1.42;;;1.05;;
16228;SDS011;8222;51.462;12.630;2022-08-01T10:04:15;1.45;;;1.30;;
16228;SDS011;8222;51.462;12.630;2022-08-01T10:06:46;1.20;;;1.20;;
16228;SDS011;8222;51.462;12.630;2022-08-01T10:09:28;1.38;;;1.38;;
16228;SDS011;8222;51.462;12.630;2022-08-01T10:11:56;1.30;;;1.30;;
16228;SDS011;8222;51.462;12.630;2022-08-01T10:14:24;1.25;;;1.20;;
16228;SDS011;8222;51.462;12.630;2022-08-01T10:16:52;1.02;;;1.02;;
16228;SDS011;8222;51.462;12.630;2022-08-01T10:19:23;0.97;;;0.90;;
16228;SDS011;8222;51.462;12.630;2022-08-01T10:21:51;1.00;;;1.00;;
16228;SDS011;8222;51.462;12.630;2022-08-01T10:24:19;2.80;;;2.60;;
16228;SDS011;8222;51.462;12.630;2022-08-01T10:26:47;0.70;;;0.70;;
16228;SDS011;8222;51.462;12.630;2022-08-01T10:29:17;0.80;;;0.80;;
16228;SDS011;8222;51.462;12.630;2022-08-01T10:31:48;0.70;;;0.70;;
16228;SDS011;8222;51.462;12.630;2022-08-01T10:34:14;0.80;;;0.80;;
16228;SDS011;8222;51.462;12.630;2022-08-01T10:36:44;0.90;;;0.90;;
16228;SDS011;8222;51.462;12.630;2022-08-01T10:39:13;0.90;;;0.90;;
16228;SDS011;8222;51.462;12.630;2022-08-01T10:41:39;0.80;;;0.80;;
16228;SDS011;8222;51.462;12.630;2022-08-01T10:44:08;1.60;;;1.50;;
16228;SDS011;8222;51.462;12.630;2022-08-01T10:46:37;1.30;;;1.20;;
16228;SDS011;8222;51.462;12.630;2022-08-01T10:49:05;1.50;;;1.40;;
16228;SDS011;8222;51.462;12.630;2022-08-01T10:51:39;1.35;;;1.30;;
16228;SDS011;8222;51.462;12.630;2022-08-01T10:54:06;1.45;;;1.35;;
16228;SDS011;8222;51.462;12.630;2022-08-01T10:59:07;1.50;;;1.40;;
16228;SDS011;8222;51.462;12.630;2022-08-01T11:01:33;1.48;;;1.38;;
16228;SDS011;8222;51.462;12.630;2022-08-01T11:04:06;1.50;;;1.40;;
16228;SDS011;8222;51.462;12.630;2022-08-01T11:11:56;1.30;;;1.30;;
16228;SDS011;8222;51.462;12.630;2022-08-01T11:14:24;1.23;;;1.20;;
16228;SDS011;8222;51.462;12.630;2022-08-01T11:16:50;1.90;;;1.80;;
16228;SDS011;8222;51.462;12.630;2022-08-01T11:19:15;2.23;;;1.60;;
16228;SDS011;8222;51.462;12.630;2022-08-01T11:27:29;1.90;;;1.80;;
16228;SDS011;8222;51.462;12.630;2022-08-01T11:32:34;2.22;;;2.13;;
16228;SDS011;8222;51.462;12.630;2022-08-01T11:35:22;2.83;;;2.63;;
16228;SDS011;8222;51.462;12.630;2022-08-01T11:37:50;2.38;;;2.28;;
16228;SDS011;8222;51.462;12.630;2022-08-01T11:40:20;2.67;;;2.47;;
16228;SDS011;8222;51.462;12.630;2022-08-01T11:42:48;2.58;;;2.38;;
16228;SDS011;8222;51.462;12.630;2022-08-01T11:45:14;2.90;;;2.70;;
16228;SDS011;8222;51.462;12.630;2022-08-01T11:53:03;2.40;;;2.20;;
16228;SDS011;8222;51.462;12.630;2022-08-01T11:55:30;3.47;;;2.20;;
16228;SDS011;8222;51.462;12.630;2022-08-01T11:58:04;2.28;;;2.05;;
16228;SDS011;8222;51.462;12.630;2022-08-01T12:00:31;1.70;;;1.60;;
16228;SDS011;8222;51.462;12.630;2022-08-01T12:02:58;1.88;;;1.77;;
16228;SDS011;8222;51.462;12.630;2022-08-01T12:05:26;1.37;;;1.33;;
16228;SDS011;8222;51.462;12.630;2022-08-01T12:07:54;1.75;;;1.65;;
16228;SDS011;8222;51.462;12.630;2022-08-01T12:10:22;1.70;;;1.60;;
16228;SDS011;8222;51.462;12.630;2022-08-01T12:13:01;1.80;;;1.70;;
16228;SDS011;8222;51.462;12.630;2022-08-01T12:15:30;1.50;;;1.40;;
16228;SDS011;8222;51.462;12.630;2022-08-01T12:18:01;1.45;;;1.35;;
16228;SDS011;8222;51.462;12.630;2022-08-01T12:20:39;3.05;;;1.55;;
16228;SDS011;8222;51.462;12.630;2022-08-01T12:23:07;1.60;;;1.50;;
16228;SDS011;8222;51.462;12.630;2022-08-01T12:25:35;2.28;;;1.55;;
16228;SDS011;8222;51.462;12.630;2022-08-01T12:28:02;1.65;;;1.52;;
16228;SDS011;8222;51.462;12.630;2022-08-01T12:30:30;1.33;;;1.25;;
16228;SDS011;8222;51.462;12.630;2022-08-01T12:33:00;1.33;;;1.23;;
16228;SDS011;8222;51.462;12.630;2022-08-01T12:35:27;1.30;;;1.30;;
16228;SDS011;8222;51.462;12.630;2022-08-01T12:37:55;1.38;;;1.27;;
16228;SDS011;8222;51.462;12.630;2022-08-01T12:40:27;1.60;;;1.50;;
16228;SDS011;8222;51.462;12.630;2022-08-01T12:42:55;1.40;;;1.30;;
16228;SDS011;8222;51.462;12.630;2022-08-01T12:47:52;1.27;;;1.27;;
16228;SDS011;8222;51.462;12.630;2022-08-01T12:50:20;1.70;;;1.60;;
16228;SDS011;8222;51.462;12.630;2022-08-01T12:52:47;2.85;;;1.80;;
16228;SDS011;8222;51.462;12.630;2022-08-01T12:55:20;1.48;;;1.38;;
16228;SDS011;8222;51.462;12.630;2022-08-01T13:01:06;1.90;;;1.80;;
16228;SDS011;8222;51.462;12.630;2022-08-01T13:03:33;1.67;;;1.58;;
16228;SDS011;8222;51.462;12.630;2022-08-01T13:06:05;2.10;;;2.00;;
16228;SDS011;8222;51.462;12.630;2022-08-01T13:08:40;1.70;;;1.60;;
16228;SDS011;8222;51.462;12.630;2022-08-01T13:11:10;1.90;;;1.80;;
16228;SDS011;8222;51.462;12.630;2022-08-01T13:13:44;1.75;;;1.65;;
16228;SDS011;8222;51.462;12.630;2022-08-01T13:16:14;1.85;;;1.75;;
16228;SDS011;8222;51.462;12.630;2022-08-01T13:18:47;1.73;;;1.63;;
16228;SDS011;8222;51.462;12.630;2022-08-01T13:21:16;1.55;;;1.45;;
16228;SDS011;8222;51.462;12.630;2022-08-01T13:26:42;2.15;;;1.95;;
16228;SDS011;8222;51.462;12.630;2022-08-01T13:29:17;1.50;;;1.40;;
16228;SDS011;8222;51.462;12.630;2022-08-01T13:31:45;1.70;;;1.60;;
16228;SDS011;8222;51.462;12.630;2022-08-01T13:34:11;1.25;;;1.20;;
16228;SDS011;8222;51.462;12.630;2022-08-01T13:36:37;1.33;;;1.33;;
16228;SDS011;8222;51.462;12.630;2022-08-01T13:39:03;1.40;;;1.30;;
16228;SDS011;8222;51.462;12.630;2022-08-01T13:41:48;1.20;;;1.15;;
16228;SDS011;8222;51.462;12.630;2022-08-01T13:44:14;1.20;;;1.20;;
16228;SDS011;8222;51.462;12.630;2022-08-01T13:46:41;1.30;;;1.20;;
16228;SDS011;8222;51.462;12.630;2022-08-01T13:49:08;1.30;;;1.20;;
16228;SDS011;8222;51.462;12.630;2022-08-01T13:51:35;1.10;;;1.10;;
16228;SDS011;8222;51.462;12.630;2022-08-01T13:54:01;1.40;;;1.30;;
16228;SDS011;8222;51.462;12.630;2022-08-01T13:56:27;1.10;;;1.10;;
16228;SDS011;8222;51.462;12.630;2022-08-01T13:58:56;1.30;;;1.20;;
16228;SDS011;8222;51.462;12.630;2022-08-01T14:01:22;1.25;;;1.20;;
16228;SDS011;8222;51.462;12.630;2022-08-01T14:03:49;1.38;;;1.10;;
16228;SDS011;8222;51.462;12.630;2022-08-01T14:06:16;0.90;;;0.90;;
16228;SDS011;8222;51.462;12.630;2022-08-01T14:08:43;0.70;;;0.70;;
16228;SDS011;8222;51.462;12.630;2022-08-01T14:11:09;1.00;;;1.00;;
16228;SDS011;8222;51.462;12.630;2022-08-01T14:13:35;1.10;;;0.90;;
16228;SDS011;8222;51.462;12.630;2022-08-01T14:16:05;1.00;;;1.00;;
16228;SDS011;8222;51.462;12.630;2022-08-01T14:18:31;0.83;;;0.83;;
16228;SDS011;8222;51.462;12.630;2022-08-01T14:20:58;1.10;;;0.93;;
16228;SDS011;8222;51.462;12.630;2022-08-01T14:23:24;1.00;;;0.90;;
16228;SDS011;8222;51.462;12.630;2022-08-01T14:25:50;3.60;;;1.20;;
16228;SDS011;8222;51.462;12.630;2022-08-01T14:28:16;3.80;;;1.20;;
16228;SDS011;8222;51.462;12.630;2022-08-01T14:30:42;0.98;;;0.98;;
16228;SDS011;8222;51.462;12.630;2022-08-01T14:33:08;1.25;;;1.17;;
16228;SDS011;8222;51.462;12.630;2022-08-01T14:35:37;0.90;;;0.70;;
16228;SDS011;8222;51.462;12.630;2022-08-01T14:38:03;1.90;;;1.10;;
16228;SDS011;8222;51.462;12.630;2022-08-01T14:40:29;0.98;;;0.98;;
16228;SDS011;8222;51.462;12.630;2022-08-01T14:42:54;1.10;;;1.00;;
16228;SDS011;8222;51.462;12.630;2022-08-01T14:45:20;0.83;;;0.83;;
16228;SDS011;8222;51.462;12.630;2022-08-01T14:47:46;1.17;;;0.93;;
16228;SDS011;8222;51.462;12.630;2022-08-01T14:50:13;0.88;;;0.88;;
16228;SDS011;8222;51.462;12.630;2022-08-01T14:52:39;0.95;;;0.95;;
16228;SDS011;8222;51.462;12.630;2022-08-01T14:55:07;1.50;;;0.90;;
16228;SDS011;8222;51.462;12.630;2022-08-01T14:57:34;0.93;;;0.90;;
16228;SDS011;8222;51.462;12.630;2022-08-01T15:00:01;1.10;;;1.00;;
16228;SDS011;8222;51.462;12.630;2022-08-01T15:02:29;0.93;;;0.93;;
16228;SDS011;8222;51.462;12.630;2022-08-01T15:04:55;0.90;;;0.90;;
16228;SDS011;8222;51.462;12.630;2022-08-01T15:07:21;0.77;;;0.77;;
16228;SDS011;8222;51.462;12.630;2022-08-01T15:09:47;0.90;;;0.90;;
16228;SDS011;8222;51.462;12.630;2022-08-01T15:12:12;0.90;;;0.90;;
16228;SDS011;8222;51.462;12.630;2022-08-01T15:14:38;1.30;;;0.90;;
16228;SDS011;8222;51.462;12.630;2022-08-01T15:17:17;1.00;;;0.93;;
16228;SDS011;8222;51.462;12.630;2022-08-01T15:19:44;0.82;;;0.82;;
16228;SDS011;8222;51.462;12.630;2022-08-01T15:22:12;0.90;;;0.90;;
16228;SDS011;8222;51.462;12.630;2022-08-01T15:24:37;1.13;;;0.98;;
16228;SDS011;8222;51.462;12.630;2022-08-01T15:27:03;1.17;;;1.10;;
16228;SDS011;8222;51.462;12.630;2022-08-01T15:29:30;1.00;;;0.90;;
16228;SDS011;8222;51.462;12.630;2022-08-01T15:31:56;1.30;;;1.20;;
16228;SDS011;8222;51.462;12.630;2022-08-01T15:34:22;1.63;;;1.25;;